Time;durP1;ratioP1;P1;durP2;ratioP2;P2;SDS_P1;SDS_P2;PMS_P1;PMS_P2;Temp;Humidity;BMP_temperature;BMP_pressure;BME280_temperature;BME280_humidity;BME280_pressure;Samples;Min_cycle;Max_cycle;Signal;HPM_P1;HPM_P2
2021/07/19 00:01:56;;;;;;;5.50;1.90;;;;;;;23.41;50.82;98168.38;5016409;28;20033;-60
2021/07/19 00:04:22;;;;;;;5.28;2.13;;;;;;;23.56;49.88;98175.00;4998262;28;20029;-61
2021/07/19 00:06:47;;;;;;;4.50;2.00;;;;;;;23.56;50.25;98178.44;5019334;28;20029;-59
2021/07/19 00:09:14;;;;;;;6.25;2.00;;;;;;;23.66;49.36;98174.38;5037859;28;20575;-61
2021/07/19 00:11:41;;;;;;;5.20;2.25;;;;;;;23.33;48.85;98134.28;5018559;28;20049;-60
2021/07/19 00:14:07;;;;;;;4.10;1.90;;;;;;;23.80;48.55;98186.28;5019882;28;20082;-61
2021/07/19 00:16:32;;;;;;;4.38;2.20;;;;;;;23.81;48.99;98197.75;5016813;28;20138;-61
2021/07/19 00:18:58;;;;;;;6.07;2.30;;;;;;;23.86;49.13;98195.13;4995820;28;20388;-62
2021/07/19 00:21:24;;;;;;;4.50;2.10;;;;;;;23.87;49.68;98192.25;4998085;28;20602;-60
2021/07/19 00:23:49;;;;;;;5.72;2.20;;;;;;;23.77;49.81;98186.75;5013024;28;20460;-60
2021/07/19 00:26:15;;;;;;;4.43;2.30;;;;;;;23.91;49.16;98185.44;5017843;28;20025;-59
2021/07/19 00:28:40;;;;;;;4.20;2.33;;;;;;;23.96;49.43;98198.75;5002326;28;20026;-61
2021/07/19 00:31:06;;;;;;;5.45;2.25;;;;;;;23.94;50.08;98194.75;5029776;28;20041;-60
2021/07/19 00:33:32;;;;;;;5.70;2.30;;;;;;;23.94;50.55;98206.16;5015378;28;20794;-60
2021/07/19 00:35:57;;;;;;;4.97;2.00;;;;;;;23.96;50.78;98204.06;5011097;28;20037;-60
2021/07/19 00:38:23;;;;;;;6.68;2.90;;;;;;;23.96;51.15;98211.25;5032294;28;20045;-60
2021/07/19 00:40:48;;;;;;;5.10;2.80;;;;;;;23.99;50.89;98205.47;5036651;28;20112;-60
2021/07/19 00:43:13;;;;;;;4.57;2.35;;;;;;;24.04;50.77;98194.09;5015396;28;20022;-60
2021/07/19 00:45:39;;;;;;;5.38;2.80;;;;;;;24.07;51.06;98201.59;5013903;28;20486;-60
2021/07/19 00:48:06;;;;;;;6.57;2.80;;;;;;;24.05;51.33;98204.47;5025175;28;20036;-61
2021/07/19 00:50:33;;;;;;;6.13;2.85;;;;;;;23.99;51.34;98202.81;5017626;28;20029;-60
2021/07/19 00:53:00;;;;;;;5.40;2.80;;;;;;;23.66;51.75;98161.09;5001645;28;20029;-61
2021/07/19 00:55:31;;;;;;;4.20;2.20;;;;;;;23.64;51.72;98140.13;5012254;28;20025;-60
2021/07/19 00:57:57;;;;;;;5.78;2.47;;;;;;;23.97;51.82;98195.06;5018314;28;20032;-62
2021/07/19 01:00:22;;;;;;;5.22;2.72;;;;;;;23.86;52.45;98216.38;5014977;28;20033;-60
2021/07/19 01:02:49;;;;;;;4.50;2.40;;;;;;;23.59;52.66;98177.97;4998840;28;20858;-60
2021/07/19 01:05:15;;;;;;;6.10;2.60;;;;;;;23.80;52.86;98210.19;5005237;28;20537;-60
2021/07/19 01:07:41;;;;;;;5.72;2.53;;;;;;;23.86;53.70;98217.19;5018743;28;20033;-60
2021/07/19 01:10:16;;;;;;;6.55;2.53;;;;;;;23.75;53.15;98204.78;5030564;28;20053;-61
2021/07/19 01:12:44;;;;;;;5.82;2.58;;;;;;;23.65;53.85;98205.41;5014985;28;20033;-62
2021/07/19 01:15:10;;;;;;;6.03;2.22;;;;;;;23.48;54.29;98189.47;5029862;28;20101;-61
2021/07/19 01:17:36;;;;;;;6.70;2.55;;;;;;;22.99;54.92;98189.06;5008673;28;21278;-60
2021/07/19 01:20:01;;;;;;;4.82;2.38;;;;;;;23.18;54.81;98216.22;5032087;28;20025;-61
2021/07/19 01:22:48;;;;;;;5.80;2.65;;;;;;;23.01;55.32;98216.13;4999954;28;20238;-60
2021/07/19 01:25:32;;;;;;;4.78;2.17;;;;;;;23.07;55.25;98217.84;5020889;28;20033;-60
2021/07/19 01:28:07;;;;;;;4.47;2.17;;;;;;;23.08;55.58;98216.03;5018569;28;20190;-60
2021/07/19 01:30:32;;;;;;;6.43;2.10;;;;;;;23.02;56.00;98207.16;5022032;28;20060;-61
2021/07/19 01:33:00;;;;;;;4.72;2.33;;;;;;;22.79;56.45;98182.28;5018526;28;20520;-60
2021/07/19 01:35:26;;;;;;;6.40;2.30;;;;;;;22.94;56.57;98220.75;5019335;28;20523;-61
2021/07/19 01:37:52;;;;;;;4.68;2.20;;;;;;;22.76;56.63;98227.00;5019564;28;20076;-60
2021/07/19 01:40:18;;;;;;;5.00;2.40;;;;;;;22.87;56.45;98223.53;5020358;28;20036;-61
2021/07/19 01:42:44;;;;;;;4.75;2.10;;;;;;;22.89;56.52;98218.00;5040530;28;20068;-62
2021/07/19 01:45:10;;;;;;;7.00;2.45;;;;;;;22.93;56.97;98224.47;5019348;28;20050;-59
2021/07/19 01:47:36;;;;;;;6.38;2.47;;;;;;;22.86;57.37;98213.19;5024489;28;20672;-60
2021/07/19 01:50:05;;;;;;;6.30;2.55;;;;;;;22.83;57.34;98223.22;5041106;28;20037;-60
2021/07/19 01:52:31;;;;;;;5.23;2.33;;;;;;;22.78;57.41;98227.56;5021988;28;20029;-60
2021/07/19 01:54:56;;;;;;;7.25;2.63;;;;;;;22.70;57.66;98220.00;5040880;28;20396;-61
2021/07/19 01:57:22;;;;;;;5.95;2.47;;;;;;;22.66;57.56;98230.25;5038514;28;20026;-61
2021/07/19 01:59:48;;;;;;;5.22;2.40;;;;;;;22.69;57.62;98223.69;5040217;28;20029;-60
2021/07/19 02:02:15;;;;;;;5.20;2.40;;;;;;;22.74;57.96;98224.59;5020574;28;20139;-61
2021/07/19 02:04:41;;;;;;;4.65;2.40;;;;;;;22.63;57.87;98225.41;5038800;28;20515;-60
2021/07/19 02:07:06;;;;;;;7.57;2.53;;;;;;;22.31;58.56;98183.41;5034362;28;20155;-61
2021/07/19 02:09:33;;;;;;;5.68;2.50;;;;;;;22.51;58.03;98214.84;5035787;28;20025;-61
2021/07/19 02:12:04;;;;;;;7.28;2.40;;;;;;;22.32;58.35;98203.53;5023865;28;20095;-61
2021/07/19 02:14:30;;;;;;;4.80;2.30;;;;;;;22.60;57.94;98233.84;5033807;28;20025;-59
2021/07/19 02:16:57;;;;;;;4.97;2.40;;;;;;;22.42;57.67;98192.38;5024191;28;20731;-60
2021/07/19 02:19:23;;;;;;;4.40;2.33;;;;;;;22.57;57.86;98237.75;5016894;28;20018;-61
2021/07/19 02:21:49;;;;;;;4.95;2.38;;;;;;;22.50;57.99;98212.41;5007035;28;20045;-60
2021/07/19 02:24:15;;;;;;;4.65;2.35;;;;;;;22.59;58.24;98235.66;5017332;28;20136;-61
2021/07/19 02:26:40;;;;;;;6.47;3.00;;;;;;;22.35;58.26;98234.88;5003547;28;20038;-61
2021/07/19 02:29:06;;;;;;;6.80;3.30;;;;;;;;;;5016187;28;20120;-60
2021/07/19 02:31:31;;;;;;;5.50;2.70;;;;;;;22.17;58.97;98198.69;5020118;28;20562;-61
2021/07/19 02:33:58;;;;;;;5.47;2.78;;;;;;;22.42;59.18;98235.56;5037790;28;20388;-61
2021/07/19 02:36:24;;;;;;;6.93;3.08;;;;;;;22.46;59.14;98228.75;5003027;28;20041;-60
2021/07/19 02:38:51;;;;;;;6.43;3.03;;;;;;;22.46;59.15;98230.63;5005065;28;20014;-61
2021/07/19 02:41:19;;;;;;;6.05;2.50;;;;;;;22.37;59.34;98226.69;5017753;28;20566;-61
2021/07/19 02:43:47;;;;;;;4.63;2.85;;;;;;;22.39;59.44;98236.00;5021808;28;20084;-60
2021/07/19 02:46:13;;;;;;;4.95;2.67;;;;;;;22.30;59.90;98220.72;5038778;28;20140;-60
2021/07/19 02:48:40;;;;;;;5.50;2.85;;;;;;;22.30;59.99;98220.72;5036690;28;20116;-60
2021/07/19 02:51:07;;;;;;;5.63;3.20;;;;;;;21.97;60.57;98237.91;5037784;28;20036;-62
2021/07/19 02:53:36;;;;;;;7.22;3.40;;;;;;;21.69;60.83;98192.53;5017376;28;20032;-60
2021/07/19 02:56:04;;;;;;;6.30;2.90;;;;;;;21.99;60.75;98217.31;5039311;28;20026;-62
2021/07/19 02:58:30;;;;;;;6.32;3.15;;;;;;;21.98;60.38;98224.47;5017906;28;20685;-60
2021/07/19 03:00:56;;;;;;;6.25;3.35;;;;;;;21.82;60.48;98185.44;5038026;28;20029;-61
2021/07/19 03:03:30;;;;;;;6.80;3.45;;;;;;;21.95;60.97;98226.75;5016166;28;20041;-61
2021/07/19 03:06:02;;;;;;;7.72;3.90;;;;;;;21.65;60.87;98191.38;5036783;28;20022;-60
2021/07/19 03:08:34;;;;;;;5.70;3.30;;;;;;;21.89;60.63;98216.03;5016375;28;20296;-62
2021/07/19 03:11:02;;;;;;;5.68;3.40;;;;;;;21.89;60.82;98221.31;5037308;28;20026;-59
2021/07/19 03:13:29;;;;;;;6.97;3.60;;;;;;;21.75;61.68;98222.56;5003810;28;20563;-61
2021/07/19 03:15:56;;;;;;;6.47;3.53;;;;;;;21.81;61.75;98232.25;5022472;28;20028;-61
2021/07/19 03:18:21;;;;;;;5.85;3.40;;;;;;;22.01;61.29;98229.31;5021020;28;20033;-60
2021/07/19 03:20:47;;;;;;;6.18;3.47;;;;;;;21.99;61.98;98231.34;5018170;28;20025;-60
2021/07/19 03:23:15;;;;;;;7.90;3.55;;;;;;;22.00;61.26;98222.38;5017886;28;20053;-62
2021/07/19 03:25:41;;;;;;;5.70;3.40;;;;;;;21.95;61.11;98219.59;5029740;28;20526;-59
2021/07/19 03:28:07;;;;;;;5.80;3.50;;;;;;;21.60;61.36;98156.84;5035862;28;20051;-60
2021/07/19 03:30:33;;;;;;;8.32;3.70;;;;;;;21.49;62.34;98186.72;5004139;28;20132;-60
2021/07/19 03:32:59;;;;;;;7.43;3.75;;;;;;;21.55;62.75;98227.34;5020386;28;20770;-60
2021/07/19 03:35:26;;;;;;;8.57;3.65;;;;;;;21.68;62.62;98224.50;5020222;28;20030;-60
2021/07/19 03:37:52;;;;;;;7.82;3.45;;;;;;;21.77;62.49;98225.78;5023554;28;20116;-61
2021/07/19 03:40:20;;;;;;;7.13;3.75;;;;;;;21.64;62.74;98224.13;5034633;28;20436;-61
2021/07/19 03:42:47;;;;;;;7.43;3.50;;;;;;;21.39;62.27;98184.56;5021609;28;20040;-61
2021/07/19 03:45:13;;;;;;;6.45;3.58;;;;;;;21.66;62.40;98223.91;5032237;28;20097;-60
2021/07/19 03:47:41;;;;;;;7.07;3.50;;;;;;;21.27;62.05;98176.63;5012862;28;20597;-60
2021/07/19 03:50:07;;;;;;;8.15;4.07;;;;;;;21.67;62.68;98225.53;5019946;28;20038;-60
2021/07/19 03:52:34;;;;;;;7.97;3.60;;;;;;;21.71;62.15;98217.97;5036762;28;20079;-59
2021/07/19 03:54:59;;;;;;;7.60;3.63;;;;;;;21.70;62.03;98230.34;5020465;28;20473;-60
2021/07/19 03:57:25;;;;;;;8.40;3.55;;;;;;;21.72;62.35;98230.13;5018435;28;20092;-60
2021/07/19 03:59:51;;;;;;;6.68;3.70;;;;;;;21.69;62.41;98221.63;5038248;28;20132;-60
2021/07/19 04:02:18;;;;;;;6.43;3.78;;;;;;;21.80;62.15;98235.13;5031846;28;20065;-60
2021/07/19 04:04:50;;;;;;;12.82;3.70;;;;;;;21.71;62.08;98216.13;5017739;28;20080;-60
2021/07/19 04:07:16;;;;;;;7.72;3.60;;;;;;;21.67;61.97;98229.00;5020509;28;20068;-60
2021/07/19 04:09:42;;;;;;;7.60;3.85;;;;;;;21.71;62.15;98224.06;5020900;28;20124;-62
2021/07/19 04:12:13;;;;;;;6.40;3.80;;;;;;;21.59;62.76;98200.19;5022178;28;20041;-60
2021/07/19 04:14:40;;;;;;;5.93;3.92;;;;;;;21.81;62.70;98229.59;5012602;28;20029;-63
2021/07/19 04:17:05;;;;;;;7.38;4.10;;;;;;;21.72;62.31;98223.00;5008046;28;20110;-59
2021/07/19 04:19:31;;;;;;;6.80;3.53;;;;;;;21.45;62.95;98236.63;5026287;28;20026;-61
2021/07/19 04:21:57;;;;;;;9.52;3.63;;;;;;;21.35;62.45;98209.88;5038771;28;20041;-59
2021/07/19 04:24:22;;;;;;;7.00;3.30;;;;;;;21.49;61.96;98224.56;5011694;28;20113;-61
2021/07/19 04:26:48;;;;;;;6.38;3.50;;;;;;;21.55;62.83;98232.63;5030493;28;20048;-60
2021/07/19 04:29:13;;;;;;;8.05;3.63;;;;;;;21.61;62.39;98229.91;5013756;28;20036;-62
2021/07/19 04:31:39;;;;;;;7.60;3.35;;;;;;;21.64;62.49;98237.38;5017965;28;20044;-58
2021/07/19 04:34:04;;;;;;;8.10;3.38;;;;;;;21.62;62.23;98236.00;5037096;28;20025;-60
2021/07/19 04:36:32;;;;;;;5.30;3.25;;;;;;;21.49;62.91;98235.13;5029688;28;20496;-61
2021/07/19 04:38:57;;;;;;;5.00;2.80;;;;;;;21.34;63.33;98202.97;5004850;28;20515;-61
2021/07/19 04:41:23;;;;;;;6.53;3.20;;;;;;;21.28;63.04;98191.47;5034489;28;20021;-59
2021/07/19 04:43:49;;;;;;;7.07;3.30;;;;;;;21.65;63.45;98238.19;5036361;28;20037;-61
2021/07/19 04:46:15;;;;;;;5.13;2.90;;;;;;;21.69;63.65;98242.00;5020043;28;20087;-60
2021/07/19 04:48:41;;;;;;;5.30;3.22;;;;;;;21.31;64.02;98201.56;5020075;28;20722;-60
2021/07/19 04:51:06;;;;;;;5.03;2.92;;;;;;;21.33;64.06;98227.78;5011622;28;20848;-61
2021/07/19 04:53:32;;;;;;;5.20;2.75;;;;;;;21.59;63.08;98239.88;5017613;28;20522;-60
2021/07/19 04:55:59;;;;;;;6.85;3.00;;;;;;;21.62;63.69;98239.44;5020059;28;20566;-61
2021/07/19 04:58:26;;;;;;;5.93;3.20;;;;;;;21.63;63.38;98246.34;5013969;28;20095;-60
2021/07/19 05:01:00;;;;;;;6.07;3.28;;;;;;;21.57;62.54;98246.44;5007984;28;20036;-60
2021/07/19 05:03:27;;;;;;;6.20;3.17;;;;;;;21.49;62.94;98252.84;5012445;28;20044;-59
2021/07/19 05:05:54;;;;;;;6.10;3.40;;;;;;;21.59;62.93;98247.00;5016735;28;20025;-61
2021/07/19 05:08:20;;;;;;;6.72;2.90;;;;;;;21.47;63.84;98239.84;5014834;28;20477;-60
2021/07/19 05:10:47;;;;;;;8.07;3.15;;;;;;;21.35;64.02;98248.72;5018689;28;20061;-60
2021/07/19 05:13:13;;;;;;;7.85;3.10;;;;;;;21.47;64.02;98250.41;5012919;28;20041;-60
2021/07/19 05:15:41;;;;;;;6.15;3.13;;;;;;;21.32;64.76;98244.72;5014772;28;20116;-61
2021/07/19 05:18:10;;;;;;;6.25;3.15;;;;;;;21.14;64.51;98221.75;5020200;28;20110;-60
2021/07/19 05:20:37;;;;;;;5.10;3.10;;;;;;;21.13;64.80;98220.91;5009581;28;20112;-60
2021/07/19 05:23:03;;;;;;;6.50;3.20;;;;;;;21.41;64.81;98261.03;5021745;28;20025;-61
2021/07/19 05:25:30;;;;;;;5.82;3.10;;;;;;;21.20;64.74;98220.03;5020195;28;20112;-60
2021/07/19 05:27:58;;;;;;;6.28;3.40;;;;;;;21.39;62.81;98255.19;5014320;28;20029;-59
2021/07/19 05:30:27;;;;;;;7.10;3.28;;;;;;;21.53;64.56;98254.00;5017747;28;20566;-61
2021/07/19 05:32:53;;;;;;;6.60;3.38;;;;;;;21.48;62.53;98257.34;4998274;28;20797;-62
2021/07/19 05:35:22;;;;;;;6.82;3.50;;;;;;;21.21;62.40;98219.81;5015792;28;20029;-60
2021/07/19 05:37:48;;;;;;;5.53;2.92;;;;;;;21.29;62.90;98266.28;5025999;28;20041;-61
2021/07/19 05:40:14;;;;;;;6.85;3.30;;;;;;;21.29;63.42;98258.38;5027803;28;20080;-62
2021/07/19 05:42:41;;;;;;;5.57;3.33;;;;;;;21.30;62.82;98257.31;5018675;28;20083;-61
2021/07/19 05:45:07;;;;;;;8.60;3.20;;;;;;;21.31;63.07;98251.00;5018062;28;20696;-61
2021/07/19 05:47:33;;;;;;;7.78;3.10;;;;;;;21.24;62.73;98266.94;5016486;28;20034;-60
2021/07/19 05:50:00;;;;;;;8.63;3.15;;;;;;;21.27;62.26;98265.72;5016613;28;20051;-61
2021/07/19 05:52:25;;;;;;;7.57;3.35;;;;;;;21.20;62.58;98247.28;5015726;28;20476;-61
2021/07/19 05:54:51;;;;;;;6.13;3.08;;;;;;;21.18;63.21;98212.31;5015884;28;20025;-60
2021/07/19 05:57:16;;;;;;;5.50;3.20;;;;;;;21.49;62.54;98258.94;5033104;28;20060;-62
2021/07/19 05:59:42;;;;;;;5.72;3.30;;;;;;;21.39;62.14;98263.13;5017189;28;20030;-60
2021/07/19 06:02:07;;;;;;;8.55;3.20;;;;;;;21.28;60.54;98239.06;5004887;28;20641;-62
2021/07/19 06:04:32;;;;;;;10.25;3.28;;;;;;;21.42;60.53;98260.81;5015224;28;21624;-61
2021/07/19 06:06:58;;;;;;;5.40;3.00;;;;;;;21.23;60.02;98251.31;5017865;28;20079;-61
2021/07/19 06:09:23;;;;;;;5.90;2.78;;;;;;;21.29;59.89;98264.44;5018043;28;20025;-61
2021/07/19 06:11:49;;;;;;;7.50;2.90;;;;;;;21.03;59.85;98206.63;5024918;28;20037;-59
2021/07/19 06:14:14;;;;;;;6.03;2.90;;;;;;;21.08;58.98;98206.75;5019720;28;20034;-61
2021/07/19 06:16:40;;;;;;;5.55;2.90;;;;;;;21.27;58.32;98253.28;5023715;28;20698;-59
2021/07/19 06:19:06;;;;;;;6.53;2.80;;;;;;;21.03;58.08;98219.84;5036854;28;20036;-60
2021/07/19 06:21:31;;;;;;;7.28;2.80;;;;;;;21.27;58.71;98255.13;5009263;28;20033;-61
2021/07/19 06:23:56;;;;;;;7.00;2.83;;;;;;;21.27;58.54;98257.78;5020200;28;20119;-59
2021/07/19 06:26:23;;;;;;;5.90;3.00;;;;;;;21.32;58.79;98265.84;5021709;28;20768;-61
2021/07/19 06:28:48;;;;;;;6.38;2.63;;;;;;;21.39;58.07;98263.91;5021892;28;20041;-58
2021/07/19 06:31:13;;;;;;;7.72;2.88;;;;;;;21.35;58.75;98261.94;5035407;28;20030;-60
2021/07/19 06:33:39;;;;;;;6.72;3.20;;;;;;;21.37;58.72;98273.91;5036951;28;20025;-60
2021/07/19 06:36:04;;;;;;;5.40;2.75;;;;;;;21.44;58.30;98265.91;5021197;28;20034;-62
2021/07/19 06:38:30;;;;;;;7.85;3.28;;;;;;;21.49;58.04;98264.22;5020069;28;20025;-60
2021/07/19 06:40:55;;;;;;;6.00;3.20;;;;;;;21.58;57.65;98272.66;5018974;28;20034;-60
2021/07/19 06:43:21;;;;;;;5.65;2.90;;;;;;;21.66;57.08;98274.97;5017679;28;20768;-60
2021/07/19 06:45:47;;;;;;;6.20;3.30;;;;;;;21.57;57.34;98272.88;5024023;28;20033;-60
2021/07/19 06:48:14;;;;;;;6.00;2.70;;;;;;;21.61;57.46;98277.50;5019540;28;20092;-62
2021/07/19 06:50:40;;;;;;;6.30;2.60;;;;;;;21.71;60.04;98276.97;5026957;28;20152;-60
2021/07/19 06:53:05;;;;;;;8.63;2.92;;;;;;;21.73;58.80;98268.81;5000989;28;20438;-60
2021/07/19 06:55:31;;;;;;;6.70;2.67;;;;;;;21.55;59.00;98229.97;5037375;28;20657;-61
2021/07/19 06:57:56;;;;;;;7.10;2.97;;;;;;;21.62;59.93;98234.16;5035486;28;20033;-61
2021/07/19 07:00:22;;;;;;;7.00;3.08;;;;;;;21.87;59.25;98264.94;5025990;28;20136;-61
2021/07/19 07:02:47;;;;;;;6.20;2.80;;;;;;;21.84;59.61;98260.88;5020904;28;20051;-62
2021/07/19 07:05:13;;;;;;;5.65;3.03;;;;;;;21.94;59.13;98275.41;5021874;28;20033;-61
2021/07/19 07:07:38;;;;;;;6.55;2.75;;;;;;;21.61;59.79;98235.19;5004435;28;20065;-59
2021/07/19 07:10:05;;;;;;;5.78;2.95;;;;;;;21.81;56.81;98279.06;5020832;28;20510;-62
2021/07/19 07:12:31;;;;;;;6.88;3.20;;;;;;;21.87;56.52;98275.53;5017798;28;20487;-60
2021/07/19 07:14:56;;;;;;;7.15;3.20;;;;;;;21.85;58.70;98272.31;5018267;28;20041;-60
2021/07/19 07:17:22;;;;;;;6.50;3.22;;;;;;;21.83;58.79;98277.00;5020475;28;20042;-62
2021/07/19 07:19:47;;;;;;;7.70;2.92;;;;;;;21.89;58.65;98284.84;5030202;28;20037;-62
2021/07/19 07:22:12;;;;;;;7.05;2.97;;;;;;;21.92;60.23;98286.22;5034925;28;20029;-61
2021/07/19 07:24:41;;;;;;;7.05;3.45;;;;;;;21.87;59.35;98275.53;5019402;28;20146;-61
2021/07/19 07:27:10;;;;;;;8.82;2.97;;;;;;;21.96;58.32;98281.28;5009047;28;20496;-60
2021/07/19 07:29:36;;;;;;;6.47;3.10;;;;;;;21.90;58.22;98272.41;5018877;28;20041;-61
2021/07/19 07:32:03;;;;;;;5.85;2.90;;;;;;;21.91;55.87;98281.97;5017181;28;20044;-60
2021/07/19 07:34:29;;;;;;;7.13;3.20;;;;;;;21.86;57.62;98279.19;5014137;28;20056;-60
2021/07/19 07:36:54;;;;;;;7.35;3.28;;;;;;;21.93;58.02;98279.91;5022236;28;20029;-61
2021/07/19 07:39:20;;;;;;;7.45;3.42;;;;;;;21.88;57.41;98279.78;5017493;28;20527;-63
2021/07/19 07:41:45;;;;;;;6.22;3.10;;;;;;;21.94;57.73;98267.47;5031833;28;20026;-63
2021/07/19 07:44:10;;;;;;;5.38;2.88;;;;;;;21.93;59.10;98273.81;5009379;28;20207;-63
2021/07/19 07:46:37;;;;;;;6.88;2.92;;;;;;;21.85;57.64;98270.47;5021012;28;20030;-63
2021/07/19 07:49:03;;;;;;;7.47;3.05;;;;;;;21.77;54.40;98272.63;5017094;28;20534;-64
2021/07/19 07:51:28;;;;;;;6.70;3.22;;;;;;;22.51;52.54;98277.63;5004829;28;20021;-64
2021/07/19 07:53:53;;;;;;;6.88;3.10;;;;;;;23.15;49.92;98259.13;5034750;28;20384;-64
2021/07/19 07:56:19;;;;;;;7.50;3.58;;;;;;;23.52;47.53;98243.66;5018782;28;20056;-63
2021/07/19 07:58:44;;;;;;;7.90;3.53;;;;;;;24.16;47.39;98271.84;5016849;28;20030;-63
2021/07/19 08:01:10;;;;;;;7.15;3.90;;;;;;;24.28;45.73;98235.38;5018539;28;20030;-63
2021/07/19 08:03:35;;;;;;;7.60;3.95;;;;;;;24.89;44.41;98261.22;5013182;28;20087;-63
2021/07/19 08:06:01;;;;;;;8.02;4.10;;;;;;;25.09;44.21;98269.47;5012053;28;20025;-64
2021/07/19 08:08:26;;;;;;;8.88;3.65;;;;;;;25.18;43.08;98227.28;5016836;28;20440;-63
2021/07/19 08:10:52;;;;;;;6.15;3.72;;;;;;;25.70;41.84;98255.25;5033940;28;20975;-63
2021/07/19 08:13:17;;;;;;;7.68;3.72;;;;;;;25.97;41.21;98265.09;5017652;28;20037;-63
2021/07/19 08:15:47;;;;;;;8.57;3.63;;;;;;;26.11;40.38;98258.31;5000263;28;20021;-63
2021/07/19 08:18:13;;;;;;;6.53;3.60;;;;;;;26.28;39.96;98258.97;5031770;28;20029;-62
2021/07/19 08:20:39;;;;;;;6.63;3.90;;;;;;;26.64;40.05;98259.22;5017312;28;20153;-62
2021/07/19 08:23:04;;;;;;;7.40;3.60;;;;;;;27.04;40.98;98257.81;5016391;28;20484;-63
2021/07/19 08:25:30;;;;;;;6.68;4.15;;;;;;;26.78;40.67;98258.78;5012913;28;20024;-61
2021/07/19 08:27:55;;;;;;;8.43;4.00;;;;;;;26.52;41.81;98247.91;5023609;28;20040;-63
2021/07/19 08:30:21;;;;;;;7.20;4.00;;;;;;;26.38;41.10;98252.13;5019676;28;20033;-62
2021/07/19 08:32:47;;;;;;;6.97;4.07;;;;;;;26.17;41.83;98257.28;5031782;28;20393;-64
2021/07/19 08:35:13;;;;;;;8.48;4.75;;;;;;;26.46;41.84;98256.94;5021359;28;20512;-64
2021/07/19 08:37:40;;;;;;;6.70;4.35;;;;;;;26.66;40.75;98240.31;5015432;28;20044;-64
2021/07/19 08:40:09;;;;;;;6.90;4.00;;;;;;;27.04;41.41;98252.47;5016764;28;20041;-64
2021/07/19 08:42:36;;;;;;;6.82;3.97;;;;;;;26.89;41.92;98243.59;5026252;28;20530;-64
2021/07/19 08:45:04;;;;;;;8.82;5.60;;;;;;;26.26;40.97;98220.31;5032540;28;20113;-63
2021/07/19 08:47:29;;;;;;;7.40;4.35;;;;;;;26.88;42.58;98250.81;5020352;28;20030;-64
2021/07/19 08:49:54;;;;;;;6.97;4.40;;;;;;;27.30;41.14;98236.59;5019205;28;20071;-64
2021/07/19 08:52:21;;;;;;;7.13;4.45;;;;;;;27.47;41.32;98235.56;5015731;28;20034;-64
2021/07/19 08:54:48;;;;;;;6.50;4.97;;;;;;;27.87;39.39;98234.00;5019287;28;20025;-65
2021/07/19 08:57:14;;;;;;;7.70;6.10;;;;;;;27.85;38.97;98223.56;4996283;28;20040;-63
2021/07/19 08:59:40;;;;;;;8.15;6.75;;;;;;;27.85;39.00;98234.25;5018119;28;20029;-62
2021/07/19 09:02:06;;;;;;;9.27;7.72;;;;;;;27.67;38.54;98206.22;5016945;28;20034;-61
2021/07/19 09:04:32;;;;;;;24.85;16.75;;;;;;;27.90;36.71;98226.28;5011968;28;20111;-63
2021/07/19 09:06:58;;;;;;;66.10;12.48;;;;;;;27.80;38.95;98228.91;5036032;28;20025;-65
2021/07/19 09:09:27;;;;;;;24.90;13.23;;;;;;;28.18;39.69;98216.94;5015232;28;20034;-63
2021/07/19 09:11:53;;;;;;;13.95;12.85;;;;;;;28.58;38.03;98230.50;5025929;28;20116;-63
2021/07/19 09:14:18;;;;;;;16.27;14.98;;;;;;;28.80;37.81;98184.69;5000840;28;20081;-63
2021/07/19 09:16:44;;;;;;;13.65;11.88;;;;;;;28.72;37.27;98225.41;5033522;28;20056;-63
2021/07/19 09:19:13;;;;;;;19.15;10.13;;;;;;;28.73;37.46;98226.97;5034734;28;20021;-62
2021/07/19 09:21:40;;;;;;;12.88;11.52;;;;;;;28.97;36.10;98205.78;5015527;28;20145;-59
2021/07/19 09:24:06;;;;;;;9.32;8.43;;;;;;;29.35;35.89;98216.03;5018818;28;20037;-61
2021/07/19 09:26:33;;;;;;;11.82;10.82;;;;;;;29.46;35.05;98210.34;5018665;28;20017;-61
2021/07/19 09:28:59;;;;;;;12.00;10.93;;;;;;;28.80;36.43;98216.78;5016365;28;20060;-59
2021/07/19 09:31:39;;;;;;;19.20;16.30;;;;;;;29.40;35.01;98205.28;5011384;28;20104;-62
2021/07/19 09:34:26;;;;;;;20.17;18.88;;;;;;;29.70;35.24;98210.44;5015995;28;20029;-62
2021/07/19 09:37:06;;;;;;;16.70;15.40;;;;;;;29.51;34.77;98204.94;5033145;28;20037;-59
2021/07/19 09:39:40;;;;;;;15.15;13.95;;;;;;;29.84;34.46;98197.22;5016344;28;20025;-62
2021/07/19 09:42:17;;;;;;;13.98;12.77;;;;;;;30.53;33.54;98199.00;5018199;28;20070;-59
2021/07/19 09:44:50;;;;;;;12.25;11.15;;;;;;;30.65;33.31;98194.84;5017526;28;20029;-59
2021/07/19 09:47:16;;;;;;;17.60;16.35;;;;;;;30.91;32.92;98186.50;5040471;28;20022;-61
2021/07/19 09:49:41;;;;;;;17.10;15.80;;;;;;;30.56;33.12;98187.72;5021985;28;20029;-61
2021/07/19 09:52:10;;;;;;;23.42;22.10;;;;;;;30.13;33.10;98187.59;5020510;28;20065;-61
2021/07/19 09:54:46;;;;;;;19.05;17.75;;;;;;;29.25;34.09;98179.41;5020701;28;20145;-61
2021/07/19 09:57:12;;;;;;;19.88;18.63;;;;;;;29.50;34.09;98181.13;5020862;28;20029;-61
2021/07/19 09:59:56;;;;;;;17.33;16.02;;;;;;;29.21;34.78;98155.06;5021983;28;20663;-62
2021/07/19 10:02:35;;;;;;;16.67;15.43;;;;;;;28.85;35.50;98183.88;5020496;28;20033;-62
2021/07/19 10:05:01;;;;;;;;;;;;;;;28.45;36.16;98177.56;5005190;28;20136;-61
2021/07/19 10:07:27;;;;;;;13.73;12.63;;;;;;;28.44;36.76;98175.97;5021681;28;19967;-61
2021/07/19 10:10:00;;;;;;;14.77;13.77;;;;;;;28.53;36.62;98175.19;5038210;28;20037;-62
2021/07/19 10:12:26;;;;;;;15.82;14.73;;;;;;;28.41;33.42;98171.19;5013786;28;20453;-62
2021/07/19 10:14:52;;;;;;;16.15;14.85;;;;;;;28.32;32.87;98166.38;5014751;28;20527;-62
2021/07/19 10:17:18;;;;;;;20.42;19.10;;;;;;;28.23;31.15;98154.63;4997971;28;20668;-61
2021/07/19 10:19:44;;;;;;;18.45;16.90;;;;;;;28.17;31.47;98163.75;5016103;28;20044;-62
2021/07/19 10:22:13;;;;;;;17.83;16.65;;;;;;;28.12;32.54;98158.41;5021179;28;20052;-62
2021/07/19 10:24:43;;;;;;;15.45;14.35;;;;;;;28.26;32.23;98153.31;5009039;28;20040;-62
2021/07/19 10:27:27;;;;;;;16.83;15.73;;;;;;;28.29;32.53;98150.88;5027033;28;20116;-61
2021/07/19 10:29:53;;;;;;;15.80;14.70;;;;;;;28.48;32.64;98148.41;5019310;28;20025;-61
2021/07/19 10:32:22;;;;;;;14.35;13.30;;;;;;;28.50;33.73;98151.63;5019381;28;20044;-62
2021/07/19 10:34:53;;;;;;;15.02;13.85;;;;;;;28.41;31.92;98144.44;5027500;28;20041;-62
2021/07/19 10:37:32;;;;;;;14.82;13.80;;;;;;;28.35;34.56;98144.47;5014793;28;20040;-61
2021/07/19 10:39:58;;;;;;;13.68;12.52;;;;;;;28.31;35.19;98150.59;5031908;28;20084;-61
2021/07/19 10:42:34;;;;;;;16.60;15.38;;;;;;;28.04;33.14;98150.94;5021625;28;20036;-62
2021/07/19 10:45:14;;;;;;;12.60;11.65;;;;;;;28.01;32.81;98148.81;5016816;28;20030;-61
2021/07/19 10:47:46;;;;;;;13.48;12.35;;;;;;;28.19;35.51;98148.25;5020913;28;20126;-62
2021/07/19 10:50:15;;;;;;;12.40;11.40;;;;;;;28.02;36.99;98139.72;5020103;28;20285;-61
2021/07/19 10:52:41;;;;;;;;;;;;;;;27.80;38.87;98143.44;5030177;28;20047;-61
2021/07/19 10:55:11;;;;;;;12.10;11.13;;;;;;;27.79;37.26;98131.97;5015725;28;19987;-61
2021/07/19 10:57:40;;;;;;;12.68;11.57;;;;;;;27.54;36.81;98091.94;5021535;28;20045;-61
2021/07/19 11:00:13;;;;;;;12.23;11.15;;;;;;;27.96;36.99;98134.38;5019628;28;20219;-61
2021/07/19 11:02:38;;;;;;;12.18;11.13;;;;;;;28.20;35.13;98128.44;5019030;28;20041;-62
2021/07/19 11:05:05;;;;;;;14.15;13.05;;;;;;;28.33;34.40;98127.06;5016626;28;20569;-62
2021/07/19 11:07:45;;;;;;;12.13;11.13;;;;;;;28.54;35.35;98123.28;5020692;28;20026;-62
2021/07/19 11:10:15;;;;;;;12.43;11.32;;;;;;;28.32;35.36;98082.72;5035937;28;20034;-63
2021/07/19 11:12:53;;;;;;;15.23;13.73;;;;;;;28.47;35.19;98114.72;5021034;28;20025;-60
2021/07/19 11:15:21;;;;;;;49.53;46.90;;;;;;;28.53;35.03;98068.22;5020864;28;20112;-61
2021/07/19 11:17:47;;;;;;;250.75;239.45;;;;;;;28.71;36.04;98095.38;5011352;28;20048;-62
2021/07/19 11:20:17;;;;;;;104.10;99.30;;;;;;;28.87;34.37;98101.47;5016052;28;20032;-62
2021/07/19 11:22:44;;;;;;;67.97;64.45;;;;;;;28.85;35.39;98092.91;5000817;28;20041;-61
2021/07/19 11:25:12;;;;;;;15.95;14.82;;;;;;;28.77;35.02;98062.22;5017470;28;20037;-59
2021/07/19 11:27:48;;;;;;;14.52;13.43;;;;;;;29.08;35.19;98094.13;5017896;28;20025;-60
2021/07/19 11:30:22;;;;;;;14.20;12.85;;;;;;;29.08;34.85;98094.13;5033081;28;20029;-60
2021/07/19 11:32:48;;;;;;;15.65;14.48;;;;;;;29.12;34.90;98090.59;5016714;28;20037;-60